Time;durP1;ratioP1;P1;durP2;ratioP2;P2;SDS_P1;SDS_P2;PMS_P1;PMS_P2;Temp;Humidity;BMP_temperature;BMP_pressure;BME280_temperature;BME280_humidity;BME280_pressure;Samples;Min_cycle;Max_cycle;Signal;HPM_P1;HPM_P2
2023/07/08 00:03:24;;;;;;;3.80;3.30;;;;;;;-145.68;54.49;73813.63;10557461;28;20557;-73
2023/07/08 00:08:25;;;;;;;5.55;3.00;;;;;;;-145.68;54.43;73817.63;10557259;28;20305;-72
2023/07/08 00:13:25;;;;;;;7.75;3.97;;;;;;;-145.68;54.70;73819.63;10575582;28;20250;-73
2023/07/08 00:18:25;;;;;;;3.80;2.70;;;;;;;-145.68;54.73;73823.63;10575410;28;20190;-73
2023/07/08 00:23:26;;;;;;;5.13;3.17;;;;;;;-145.68;54.49;73819.63;10576551;28;20197;-73
2023/07/08 00:28:26;;;;;;;4.93;2.70;;;;;;;-145.68;54.16;73815.63;10582857;28;20218;-72
2023/07/08 00:33:28;;;;;;;7.90;3.15;;;;;;;-145.68;53.81;73795.63;10564615;28;20229;-73
2023/07/08 00:38:28;;;;;;;5.65;2.80;;;;;;;-145.68;53.73;73795.63;10582094;28;20209;-72
2023/07/08 00:43:35;;;;;;;4.50;3.13;;;;;;;-145.68;53.52;73799.63;10564430;28;20196;-73
2023/07/08 00:48:35;;;;;;;6.10;3.17;;;;;;;-145.68;53.64;73803.63;10582690;28;20302;-74
2023/07/08 00:53:36;;;;;;;3.63;2.88;;;;;;;-145.68;53.92;73807.63;10563578;28;20541;-73
2023/07/08 00:58:48;;;;;;;6.60;3.40;;;;;;;-145.68;53.95;73803.63;10582164;28;20182;-73
2023/07/08 01:03:53;;;;;;;3.38;2.70;;;;;;;-145.68;53.09;73781.63;10562770;28;20243;-73
2023/07/08 01:08:53;;;;;;;4.40;3.42;;;;;;;-145.68;53.52;73791.63;10581288;28;20229;-73
2023/07/08 01:13:54;;;;;;;4.43;2.97;;;;;;;-145.68;53.26;73785.63;10581253;28;20239;-73
2023/07/08 01:18:54;;;;;;;5.75;3.10;;;;;;;-145.68;52.93;73775.63;10562749;28;20177;-73
2023/07/08 01:23:55;;;;;;;4.35;2.90;;;;;;;-145.68;52.19;73737.66;10562469;28;20567;-73
2023/07/08 01:28:55;;;;;;;6.32;2.67;;;;;;;-145.68;51.54;73719.66;10580560;28;20209;-73
2023/07/08 01:33:56;;;;;;;5.22;2.80;;;;;;;-145.68;51.11;73701.69;10580358;28;20694;-73
2023/07/08 01:38:57;;;;;;;5.03;2.42;;;;;;;-145.68;50.52;73681.69;10560916;28;20210;-73
2023/07/08 01:43:58;;;;;;;6.35;3.00;;;;;;;-145.68;50.30;73657.69;10580248;28;20673;-73
2023/07/08 01:48:59;;;;;;;4.43;3.35;;;;;;;-145.68;50.16;73659.69;10579600;28;20638;-72
2023/07/08 01:54:00;;;;;;;5.18;2.83;;;;;;;-145.68;50.20;73667.69;10544941;28;20196;-73
2023/07/08 01:59:00;;;;;;;3.70;2.47;;;;;;;-145.68;49.98;73655.69;10579374;28;20182;-73
2023/07/08 02:04:00;;;;;;;6.82;2.78;;;;;;;-145.68;49.36;73629.72;10579199;28;20269;-73
2023/07/08 02:09:02;;;;;;;4.32;2.83;;;;;;;-145.68;48.75;73615.72;10578933;28;20216;-73
2023/07/08 02:14:03;;;;;;;4.28;2.90;;;;;;;-145.68;48.19;73571.75;10579000;28;20600;-73
2023/07/08 02:19:04;;;;;;;4.43;2.80;;;;;;;-145.68;47.92;73573.75;10578593;28;20829;-74
2023/07/08 02:24:06;;;;;;;4.03;2.72;;;;;;;-145.68;48.14;73571.75;10578294;28;20212;-74
2023/07/08 02:29:06;;;;;;;3.63;2.92;;;;;;;-145.68;48.08;73565.75;10578256;28;20393;-74
2023/07/08 02:34:06;;;;;;;3.30;2.60;;;;;;;-145.68;48.00;73569.75;10559411;28;20594;-74
2023/07/08 02:39:07;;;;;;;5.03;3.00;;;;;;;-145.68;47.97;73571.75;10577778;28;20205;-74
2023/07/08 02:44:07;;;;;;;4.82;2.80;;;;;;;-145.68;47.97;73569.75;10577693;28;20190;-74
2023/07/08 02:49:07;;;;;;;6.18;3.03;;;;;;;-145.68;48.32;73581.75;10576368;28;20288;-74
2023/07/08 02:54:08;;;;;;;9.10;3.55;;;;;;;-145.68;47.85;73569.75;10577382;28;20192;-74
2023/07/08 02:59:08;;;;;;;4.22;2.90;;;;;;;-145.68;47.59;73551.75;10558842;28;20186;-74
2023/07/08 03:04:12;;;;;;;4.88;2.67;;;;;;;-145.68;47.70;73555.75;10555530;28;20560;-74
2023/07/08 03:09:13;;;;;;;3.25;2.42;;;;;;;-145.68;47.46;73549.75;10550854;28;20243;-74
2023/07/08 03:14:13;;;;;;;4.60;2.92;;;;;;;-145.68;47.23;73537.78;10555048;28;20277;-74
2023/07/08 03:19:15;;;;;;;3.83;2.85;;;;;;;-145.68;47.27;73547.75;10553878;28;20196;-74
2023/07/08 03:24:18;;;;;;;5.13;3.03;;;;;;;-145.68;47.50;73541.78;10533163;28;20182;-74
2023/07/08 03:29:18;;;;;;;4.78;2.65;;;;;;;-145.68;47.10;73529.78;10512020;28;20242;-74
2023/07/08 03:34:20;;;;;;;5.13;2.60;;;;;;;-145.68;47.18;73525.78;10510965;28;20246;-74
2023/07/08 03:39:23;;;;;;;5.35;3.03;;;;;;;-145.68;47.44;73543.78;10511719;28;20202;-74
2023/07/08 03:44:24;;;;;;;4.32;2.83;;;;;;;-145.68;47.55;73535.78;10530227;28;20667;-74
2023/07/08 03:49:24;;;;;;;4.15;2.92;;;;;;;-145.68;47.24;73523.78;10529535;28;20226;-74
2023/07/08 03:54:26;;;;;;;4.93;2.92;;;;;;;-145.68;47.53;73533.78;10511783;28;20239;-74
2023/07/08 03:59:30;;;;;;;6.95;2.80;;;;;;;-145.68;47.42;73523.78;10514592;28;20262;-74
2023/07/08 04:04:32;;;;;;;4.45;2.42;;;;;;;-145.68;47.87;73511.78;10523240;28;20194;-74
2023/07/08 04:09:33;;;;;;;8.15;2.80;;;;;;;-145.68;47.57;73499.78;10541585;28;20717;-74
2023/07/08 04:14:33;;;;;;;3.25;2.47;;;;;;;-145.68;47.12;73471.81;10541844;28;20572;-74
2023/07/08 04:19:33;;;;;;;5.28;3.28;;;;;;;-145.68;47.04;73439.84;10541041;28;20575;-74
2023/07/08 04:24:34;;;;;;;3.88;2.80;;;;;;;-145.68;46.94;73415.84;10541434;28;20265;-74
2023/07/08 04:29:34;;;;;;;4.13;2.75;;;;;;;-145.68;47.25;73393.84;10540550;28;20225;-74
2023/07/08 04:34:35;;;;;;;6.30;3.40;;;;;;;-145.68;47.59;73387.88;10540113;28;20698;-74
2023/07/08 04:39:35;;;;;;;3.83;2.38;;;;;;;-145.68;47.31;73353.88;10540729;28;20736;-74
2023/07/08 04:44:35;;;;;;;3.88;2.80;;;;;;;-145.68;47.87;73357.88;10540168;28;20206;-74
2023/07/08 04:49:36;;;;;;;5.85;3.33;;;;;;;-145.68;48.57;73357.88;10540070;28;20226;-74
2023/07/08 04:54:36;;;;;;;3.45;2.83;;;;;;;-145.68;47.80;73323.91;10540193;28;20294;-74
2023/07/08 04:59:37;;;;;;;5.15;2.75;;;;;;;-145.68;48.12;73293.94;10539736;28;20179;-74
2023/07/08 05:04:37;;;;;;;3.25;2.80;;;;;;;-145.68;47.80;73279.94;10578299;28;20201;-74
2023/07/08 05:09:37;;;;;;;3.63;2.85;;;;;;;-145.68;47.70;73235.97;10580262;28;20214;-74
2023/07/08 05:14:38;;;;;;;3.15;2.78;;;;;;;-145.68;47.19;73211.97;10581522;28;20190;-74
2023/07/08 05:19:40;;;;;;;5.18;2.78;;;;;;;-145.68;47.42;73180.00;10581116;28;20770;-75
2023/07/08 05:24:50;;;;;;;4.13;2.80;;;;;;;-145.68;46.58;73144.03;10563445;27;20232;-75
2023/07/08 05:29:51;;;;;;;4.72;2.78;;;;;;;-145.68;46.21;73110.06;10579344;28;20214;-75
2023/07/08 05:34:51;;;;;;;5.68;3.20;;;;;;;-145.68;45.68;73088.06;10579169;28;20296;-75
2023/07/08 05:39:52;;;;;;;3.55;3.17;;;;;;;-145.68;45.76;73060.09;10579419;28;20210;-75
2023/07/08 05:44:54;;;;;;;3.28;2.58;;;;;;;-145.68;45.39;73022.13;10560855;28;20178;-75
2023/07/08 05:49:54;;;;;;;5.22;2.90;;;;;;;-145.68;45.00;72964.16;10574160;28;20214;-75
2023/07/08 05:54:55;;;;;;;5.13;2.88;;;;;;;-145.68;43.47;72914.19;10575426;28;20201;-75
2023/07/08 05:59:55;;;;;;;3.75;2.90;;;;;;;-145.68;43.16;72860.22;10574737;28;20281;-75
2023/07/08 06:04:55;;;;;;;4.00;3.00;;;;;;;-145.68;42.38;72792.28;10576820;28;20253;-75
2023/07/08 06:09:56;;;;;;;6.63;3.88;;;;;;;-145.68;41.23;72734.31;10557803;28;20213;-75
2023/07/08 06:14:57;;;;;;;4.00;3.10;;;;;;;-145.68;40.63;72700.34;10577629;28;20280;-74
2023/07/08 06:19:57;;;;;;;10.43;3.38;;;;;;;-145.68;40.62;72650.41;10576685;28;20197;-75
2023/07/08 06:24:57;;;;;;;4.40;3.47;;;;;;;-145.68;39.42;72576.47;10576606;28;20178;-74
2023/07/08 06:29:58;;;;;;;6.30;3.38;;;;;;;-145.68;38.65;72534.50;10576674;28;20724;-75
2023/07/08 06:34:58;;;;;;;6.85;3.75;;;;;;;-145.68;37.50;72488.53;10575790;28;20697;-75
2023/07/08 06:39:59;;;;;;;5.68;3.55;;;;;;;-145.68;36.42;72478.53;10575193;28;20740;-75
2023/07/08 06:44:59;;;;;;;5.65;3.95;;;;;;;-145.68;36.63;72390.63;10575632;28;20654;-75
2023/07/08 06:49:59;;;;;;;4.70;3.80;;;;;;;-145.68;36.34;72380.63;10575804;28;20222;-75
2023/07/08 06:55:01;;;;;;;4.80;3.90;;;;;;;-145.68;35.67;72318.69;10573643;28;20185;-75
2023/07/08 07:00:02;;;;;;;5.70;4.03;;;;;;;-145.68;35.51;72258.75;10568176;28;20561;-75
2023/07/08 07:05:04;;;;;;;5.07;4.07;;;;;;;-145.68;34.63;72180.81;10555338;28;20647;-75
2023/07/08 07:10:05;;;;;;;4.63;3.85;;;;;;;-145.68;34.55;72168.81;10554323;28;20304;-75
2023/07/08 07:15:06;;;;;;;6.60;4.20;;;;;;;-145.68;34.09;72136.84;10572348;28;20534;-75
2023/07/08 07:20:07;;;;;;;5.15;4.10;;;;;;;-145.68;35.27;72216.78;10571748;28;20216;-75
2023/07/08 07:25:08;;;;;;;7.53;3.85;;;;;;;-145.68;33.79;72160.81;10570865;28;20194;-75
2023/07/08 07:30:12;;;;;;;5.30;3.58;;;;;;;-145.68;34.27;72156.84;10571928;28;20608;-75
2023/07/08 07:35:14;;;;;;;4.53;3.97;;;;;;;-145.68;35.29;72280.72;10580396;28;20225;-75
2023/07/08 07:40:15;;;;;;;4.60;3.75;;;;;;;-145.68;34.29;72200.78;10586400;28;20213;-74
2023/07/08 07:45:15;;;;;;;3.95;3.50;;;;;;;-145.68;35.06;72248.75;10567911;28;20193;-75
2023/07/08 07:50:16;;;;;;;6.57;4.00;;;;;;;-145.68;34.78;72188.81;10585973;28;20185;-74
2023/07/08 07:55:16;;;;;;;5.75;3.80;;;;;;;-145.68;35.67;72222.78;10584994;28;20197;-75
2023/07/08 08:00:17;;;;;;;7.47;3.92;;;;;;;-145.68;34.25;72200.78;10584984;28;20193;-75
2023/07/08 08:05:19;;;;;;;4.38;3.67;;;;;;;-145.68;34.80;72262.72;10585124;27;20273;-75
2023/07/08 08:10:19;;;;;;;3.95;3.53;;;;;;;-145.68;33.68;72120.88;10565856;28;20189;-75
2023/07/08 08:15:21;;;;;;;3.72;3.08;;;;;;;-145.68;32.71;72118.88;10585440;28;20225;-75
2023/07/08 08:20:24;;;;;;;5.95;3.55;;;;;;;-145.68;33.28;72174.81;10583554;28;20342;-75
2023/07/08 08:25:25;;;;;;;5.82;3.88;;;;;;;-145.68;31.46;72016.97;10584647;28;20218;-74
2023/07/08 08:30:25;;;;;;;5.30;3.42;;;;;;;-145.68;31.09;72054.94;10585739;28;20595;-75
2023/07/08 08:35:26;;;;;;;4.45;3.95;;;;;;;-145.68;30.31;72048.94;10584990;27;20290;-75
2023/07/08 08:40:26;;;;;;;3.97;3.25;;;;;;;-145.68;29.90;72084.91;10566115;28;20210;-75
2023/07/08 08:45:27;;;;;;;9.18;3.78;;;;;;;-145.68;29.95;72100.88;10564207;28;20206;-75
2023/07/08 08:50:55;;;;;;;3.80;2.90;;;;;;;-145.68;27.74;72044.94;10578323;28;20197;-75
2023/07/08 08:56:04;;;;;;;3.40;2.95;;;;;;;-145.68;27.34;72012.97;10557200;28;20270;-75
2023/07/08 09:01:09;;;;;;;3.70;2.90;;;;;;;-145.68;26.85;71797.19;10539663;28;20198;-76
2023/07/08 09:06:13;;;;;;;4.38;2.80;;;;;;;-145.68;27.37;71733.25;10560254;28;20226;-75
2023/07/08 09:11:26;;;;;;;5.63;3.10;;;;;;;-145.68;30.28;72202.78;10578988;28;20189;-75
2023/07/08 09:16:43;;;;;;;4.07;3.00;;;;;;;-145.68;29.02;71971.00;10560795;28;20193;-76
2023/07/08 09:21:51;;;;;;;3.90;3.30;;;;;;;-145.68;29.74;72090.91;10576702;28;20217;-75
2023/07/08 09:26:52;;;;;;;5.00;3.42;;;;;;;-145.68;30.86;72182.81;10573560;28;20252;-75
2023/07/08 09:31:52;;;;;;;4.05;3.28;;;;;;;-145.68;30.17;72090.91;10574800;28;20691;-75
2023/07/08 09:36:56;;;;;;;3.28;2.97;;;;;;;-145.68;29.83;71991.00;10575397;28;20194;-75
2023/07/08 09:41:56;;;;;;;5.03;3.20;;;;;;;-145.68;29.71;72072.91;10575757;28;20276;-75
2023/07/08 09:46:58;;;;;;;4.72;3.13;;;;;;;-145.68;30.08;72146.84;10576052;28;20791;-75
2023/07/08 09:51:59;;;;;;;6.47;3.45;;;;;;;-145.68;29.62;72104.88;10575643;28;20256;-74
2023/07/08 09:57:06;;;;;;;5.10;3.47;;;;;;;-145.68;28.54;72010.97;10571182;28;20366;-75
2023/07/08 10:02:46;;;;;;;4.07;3.17;;;;;;;-145.68;28.48;71881.09;10555853;28;20193;-75
2023/07/08 10:07:47;;;;;;;5.75;3.58;;;;;;;-145.68;28.41;71819.16;10491143;28;20229;-75
2023/07/08 10:12:55;;;;;;;4.72;3.25;;;;;;;-145.68;27.29;71579.41;10576424;28;20649;-76
2023/07/08 10:17:55;;;;;;;4.43;2.95;;;;;;;-145.68;27.83;71983.00;10558219;28;20221;-75
2023/07/08 10:23:05;;;;;;;4.50;3.05;;;;;;;-145.68;28.35;71845.13;10557980;28;20725;-75
2023/07/08 10:28:21;;;;;;;4.18;3.08;;;;;;;-145.68;27.95;71935.03;10558369;28;20632;-75
2023/07/08 10:33:25;;;;;;;4.72;3.45;;;;;;;-145.68;29.08;71941.03;10557689;28;20237;-75
2023/07/08 10:38:48;;;;;;;3.75;3.00;;;;;;;-145.68;29.19;72000.97;10577981;28;20229;-75
2023/07/08 10:44:09;;;;;;;8.02;3.50;;;;;;;-145.68;29.40;72084.91;10558960;28;20645;-75
2023/07/08 10:49:29;;;;;;;4.65;3.20;;;;;;;-145.68;29.71;72012.97;10522242;28;20222;-75
2023/07/08 10:54:57;;;;;;;4.53;2.90;;;;;;;-145.68;29.54;71998.97;10511754;28;20194;-75
2023/07/08 11:00:16;;;;;;;6.88;3.58;;;;;;;-145.68;29.18;72058.94;10511681;28;20191;-75
2023/07/08 11:05:26;;;;;;;3.78;3.00;;;;;;;-145.68;28.75;71985.00;10543034;28;20244;-75
2023/07/08 11:10:36;;;;;;;7.00;3.67;;;;;;;-145.68;28.13;71965.00;10555946;28;20215;-75
2023/07/08 11:15:45;;;;;;;3.83;3.22;;;;;;;-145.68;30.45;72058.94;10561377;28;20177;-75
2023/07/08 11:20:55;;;;;;;3.88;3.00;;;;;;;-145.68;29.85;72056.94;10554575;28;20189;-75
2023/07/08 11:26:16;;;;;;;4.78;3.40;;;;;;;-145.68;29.42;71915.06;10558322;28;20225;-75
2023/07/08 11:31:16;;;;;;;5.00;3.40;;;;;;;-145.68;28.80;72016.97;10575766;28;20225;-74
2023/07/08 11:36:17;;;;;;;5.18;3.30;;;;;;;-145.68;28.19;71825.16;10576192;28;20234;-75
2023/07/08 11:41:20;;;;;;;10.55;3.75;;;;;;;-145.68;27.67;71589.41;10557588;28;20206;-75
2023/07/08 11:46:25;;;;;;;3.67;3.20;;;;;;;-145.68;26.74;71681.31;10557631;28;20217;-75
2023/07/08 11:51:30;;;;;;;5.07;2.97;;;;;;;-145.68;27.16;71597.41;10575942;28;20190;-76
2023/07/08 11:57:00;;;;;;;6.70;3.20;;;;;;;-145.68;27.81;71827.16;10549199;28;20203;-75
2023/07/08 12:02:12;;;;;;;6.47;2.90;;;;;;;-145.68;27.57;71789.19;10528839;28;20666;-75
2023/07/08 12:07:20;;;;;;;5.72;3.00;;;;;;;-145.68;25.95;71449.56;10547622;28;20222;-75
2023/07/08 12:12:24;;;;;;;8.20;3.22;;;;;;;-145.68;24.98;71393.63;10554311;28;20194;-75
2023/07/08 12:17:24;;;;;;;7.45;3.08;;;;;;;-145.68;24.83;71237.81;10573203;28;20182;-76
2023/07/08 12:22:25;;;;;;;6.63;2.90;;;;;;;-145.68;26.01;71503.50;10562285;28;20614;-75
2023/07/08 12:27:25;;;;;;;4.20;3.27;;;;;;;-145.68;26.24;71619.38;10563985;28;20241;-75
2023/07/08 12:32:28;;;;;;;5.40;3.70;;;;;;;-145.68;27.05;71779.19;10583163;28;20467;-76
2023/07/08 12:37:29;;;;;;;6.00;3.00;;;;;;;-145.68;25.86;71589.41;10582542;28;20454;-75
2023/07/08 12:42:30;;;;;;;6.03;3.05;;;;;;;-145.68;24.69;71327.69;10564522;28;20190;-75
2023/07/08 12:47:31;;;;;;;5.28;3.50;;;;;;;-145.68;23.87;71149.91;10582066;28;20217;-75
2023/07/08 12:52:32;;;;;;;6.57;2.97;;;;;;;-145.68;23.34;70986.09;10564008;28;20285;-74
2023/07/08 12:57:32;;;;;;;5.57;2.88;;;;;;;-145.68;23.12;70892.22;10581002;28;20427;-74
2023/07/08 13:02:32;;;;;;;4.82;3.20;;;;;;;-145.68;26.36;71827.16;10581895;28;20193;-73
2023/07/08 13:07:38;;;;;;;6.10;3.42;;;;;;;-145.68;26.65;71749.22;10581721;28;20358;-73
2023/07/08 13:12:39;;;;;;;3.13;2.83;;;;;;;-145.68;26.49;71721.25;10579626;28;20696;-73
2023/07/08 13:17:40;;;;;;;4.03;3.25;;;;;;;-145.68;26.27;71537.47;10559622;28;20655;-73
2023/07/08 13:22:43;;;;;;;4.03;3.05;;;;;;;-145.68;24.46;71205.84;10562704;28;20190;-73
2023/07/08 13:27:54;;;;;;;7.35;3.20;;;;;;;-145.68;22.25;70824.31;10578459;28;20212;-74
2023/07/08 13:32:56;;;;;;;6.75;3.10;;;;;;;-145.68;25.31;71587.41;10573002;28;20601;-73
2023/07/08 13:37:57;;;;;;;3.58;3.03;;;;;;;-145.68;24.37;71217.81;10576359;28;20612;-73
2023/07/08 13:42:58;;;;;;;4.10;2.97;;;;;;;-145.68;23.02;70898.22;10556793;28;20266;-73
2023/07/08 13:48:10;;;;;;;3.88;2.88;;;;;;;-145.68;21.85;70904.19;10556908;28;20744;-73
2023/07/08 13:53:23;;;;;;;5.88;2.97;;;;;;;-145.68;22.47;70938.16;10576613;28;20193;-73
2023/07/08 13:58:27;;;;;;;3.58;2.78;;;;;;;-145.68;23.33;71275.75;10575226;28;20272;-73
2023/07/08 14:03:27;;;;;;;5.75;3.15;;;;;;;-145.68;22.60;71125.94;10575147;28;20201;-73
2023/07/08 14:08:28;;;;;;;4.82;2.97;;;;;;;-145.68;21.98;70814.31;10556440;28;20221;-74
2023/07/08 14:13:28;;;;;;;6.67;2.80;;;;;;;-145.68;20.93;70518.72;10573268;28;20197;-74
2023/07/08 14:18:28;;;;;;;5.07;2.83;;;;;;;-145.68;21.93;70902.22;10556054;28;20189;-74
2023/07/08 14:23:29;;;;;;;8.10;3.30;;;;;;;-145.68;21.85;70882.22;10514012;28;20190;-73
2023/07/08 14:28:29;;;;;;;3.83;3.40;;;;;;;-145.68;25.19;71569.44;10513991;28;20230;-76
2023/07/08 14:33:30;;;;;;;6.43;3.50;;;;;;;-145.68;25.06;71537.47;10561549;28;20370;-73
2023/07/08 14:38:30;;;;;;;3.60;3.10;;;;;;;-145.68;23.92;71223.81;10573522;28;20454;-73
2023/07/08 14:43:32;;;;;;;4.40;2.90;;;;;;;-145.68;23.14;71109.94;10555440;28;20446;-74
2023/07/08 14:48:32;;;;;;;5.60;3.03;;;;;;;-145.68;22.93;70874.25;10554628;28;20217;-74
2023/07/08 14:53:33;;;;;;;5.50;3.50;;;;;;;-145.68;22.75;71000.09;10571969;28;20197;-74
2023/07/08 14:58:33;;;;;;;3.67;3.20;;;;;;;-145.68;23.26;70994.09;10572807;28;20275;-73
2023/07/08 15:03:34;;;;;;;3.25;2.95;;;;;;;-145.68;23.84;71177.88;10572727;28;20671;-73
2023/07/08 15:08:35;;;;;;;3.93;3.17;;;;;;;-145.68;23.70;71183.88;10572403;28;20213;-73
2023/07/08 15:13:36;;;;;;;5.57;2.85;;;;;;;-145.68;24.41;71413.59;10572153;28;20449;-73
2023/07/08 15:18:36;;;;;;;6.85;3.25;;;;;;;-145.68;27.71;71835.16;10571783;28;20193;-73
2023/07/08 15:23:36;;;;;;;4.70;3.07;;;;;;;-145.68;27.39;71897.09;10571390;28;20226;-72
2023/07/08 15:28:48;;;;;;;5.37;3.07;;;;;;;-145.68;26.87;71763.22;10570295;28;20479;-73
2023/07/08 15:33:49;;;;;;;5.55;3.70;;;;;;;-145.68;27.89;71757.22;10550046;28;20468;-74
2023/07/08 15:38:49;;;;;;;4.10;3.03;;;;;;;-145.68;29.26;71757.22;10571334;28;20293;-73
2023/07/08 15:50:27;;;;;;;4.32;3.13;;;;;;;-145.68;29.13;71711.28;10524631;28;20427;-73
2023/07/08 15:55:30;;;;;;;7.60;5.05;;;;;;;-145.68;28.18;71659.34;10574614;28;20553;-73
2023/07/08 16:00:32;;;;;;;7.78;4.75;;;;;;;-145.68;28.66;71617.38;10561469;28;20285;-73
2023/07/08 16:05:35;;;;;;;5.70;3.65;;;;;;;-145.68;27.59;71741.25;10579755;28;20196;-73
2023/07/08 16:10:38;;;;;;;3.30;3.00;;;;;;;-145.68;26.75;71599.41;10579555;28;20718;-73
2023/07/08 16:15:39;;;;;;;4.07;3.10;;;;;;;-145.68;26.06;71481.53;10579617;28;20294;-74
2023/07/08 16:20:39;;;;;;;4.25;3.20;;;;;;;-145.68;25.62;71429.59;10578737;28;20608;-73
2023/07/08 16:25:44;;;;;;;5.45;3.35;;;;;;;-145.68;25.74;71473.53;10579424;28;20305;-73
2023/07/08 16:30:48;;;;;;;4.78;3.13;;;;;;;-145.68;25.72;71573.41;10560292;28;20243;-73
2023/07/08 16:35:48;;;;;;;4.40;3.13;;;;;;;-145.68;24.70;71473.53;10577936;28;20226;-73
2023/07/08 16:40:50;;;;;;;6.30;2.93;;;;;;;-145.68;25.05;71371.66;10578467;28;20222;-74
2023/07/08 16:45:51;;;;;;;3.85;3.10;;;;;;;-145.68;26.01;71477.53;10578468;28;20998;-74
2023/07/08 16:50:51;;;;;;;4.77;3.20;;;;;;;-145.68;25.93;71415.59;10582351;28;20281;-74
2023/07/08 16:55:52;;;;;;;5.88;3.30;;;;;;;-145.68;27.23;71489.50;10581694;28;20509;-74
2023/07/08 17:00:52;;;;;;;4.67;2.87;;;;;;;-145.68;26.59;71621.38;10582167;28;20186;-73
2023/07/08 17:05:52;;;;;;;4.23;3.07;;;;;;;-145.68;27.98;71705.28;10580077;28;20554;-73
2023/07/08 17:10:53;;;;;;;5.07;3.08;;;;;;;-145.68;27.83;71697.28;10581521;28;20446;-73
2023/07/08 17:15:54;;;;;;;6.22;3.22;;;;;;;-145.68;27.83;71771.22;10581549;28;20272;-73
2023/07/08 17:20:58;;;;;;;8.93;3.70;;;;;;;-145.68;28.60;71841.13;10580707;28;20680;-73
2023/07/08 17:25:59;;;;;;;6.68;3.45;;;;;;;-145.68;28.11;71891.09;10581316;28;20218;-73
2023/07/08 17:30:59;;;;;;;3.47;2.87;;;;;;;-145.68;28.96;71919.06;10543186;28;20604;-73
2023/07/08 17:36:00;;;;;;;3.78;3.00;;;;;;;-145.68;28.31;71887.09;10520456;28;20452;-73
2023/07/08 17:41:00;;;;;;;6.72;3.22;;;;;;;-145.68;28.93;71885.09;10519892;28;20291;-76
2023/07/08 17:46:02;;;;;;;7.25;3.40;;;;;;;-145.68;29.06;71951.03;10537811;28;20232;-73
2023/07/08 17:51:02;;;;;;;4.60;3.55;;;;;;;-145.68;29.56;71977.00;10537750;28;20266;-73
2023/07/08 17:56:03;;;;;;;6.10;3.17;;;;;;;-145.68;29.60;72050.94;10537303;28;20197;-73
2023/07/08 18:01:08;;;;;;;8.40;3.58;;;;;;;-145.68;29.66;72016.97;10519190;28;20200;-73
2023/07/08 18:06:09;;;;;;;6.32;3.70;;;;;;;-145.68;29.88;72054.94;10537333;28;20207;-73
2023/07/08 18:11:14;;;;;;;7.07;3.08;;;;;;;-145.68;30.07;72114.88;10536912;28;20194;-75
2023/07/08 18:16:16;;;;;;;5.70;3.80;;;;;;;-145.68;30.69;72170.81;10536888;28;20193;-74
2023/07/08 18:21:22;;;;;;;6.57;3.08;;;;;;;-145.68;30.39;72184.81;10536050;28;20684;-74
2023/07/08 18:26:28;;;;;;;4.57;3.25;;;;;;;-145.68;30.57;72192.78;10536468;28;20305;-74
2023/07/08 18:31:30;;;;;;;4.13;3.47;;;;;;;-145.68;33.66;72340.66;10535678;28;20230;-74
2023/07/08 18:36:31;;;;;;;4.40;3.20;;;;;;;-145.68;34.71;72442.56;10518048;28;20187;-74
2023/07/08 18:41:44;;;;;;;6.57;3.50;;;;;;;-145.68;36.13;72448.56;10535783;28;20237;-74
2023/07/08 18:46:45;;;;;;;4.95;3.13;;;;;;;-145.68;37.17;72556.47;10517279;28;20258;-74
2023/07/08 18:51:46;;;;;;;6.28;3.38;;;;;;;-145.68;37.81;72568.47;10535726;28;20191;-74
2023/07/08 18:56:48;;;;;;;4.00;3.53;;;;;;;-145.68;39.18;72660.38;10534986;28;20186;-74
2023/07/08 19:01:48;;;;;;;5.63;3.50;;;;;;;-145.68;39.41;72714.34;10535486;28;20269;-74
2023/07/08 19:06:49;;;;;;;5.20;3.50;;;;;;;-145.68;40.00;72716.34;10516594;28;20311;-74
2023/07/08 19:11:49;;;;;;;5.78;4.07;;;;;;;-145.68;41.33;72820.25;10534865;28;20252;-74
2023/07/08 19:16:50;;;;;;;7.90;5.03;;;;;;;-145.68;42.10;72870.22;10516298;28;20312;-74
2023/07/08 19:21:51;;;;;;;4.78;3.83;;;;;;;-145.68;42.68;72892.22;10534160;28;20255;-73
2023/07/08 19:26:52;;;;;;;6.00;4.35;;;;;;;-145.68;43.26;72900.19;10516604;28;20641;-73
2023/07/08 19:31:52;;;;;;;9.75;4.50;;;;;;;-145.68;43.29;72910.19;10532917;28;20230;-74
2023/07/08 19:36:54;;;;;;;15.07;5.03;;;;;;;-145.68;43.29;72924.19;10534464;28;20252;-73
2023/07/08 19:41:55;;;;;;;11.48;9.13;;;;;;;-145.68;43.64;72942.16;10533946;28;20186;-74
2023/07/08 19:46:55;;;;;;;9.93;5.82;;;;;;;-145.68;43.99;72980.13;10533841;28;20224;-73
2023/07/08 19:51:57;;;;;;;4.93;4.03;;;;;;;-145.68;43.90;72992.13;10534650;28;20267;-73
2023/07/08 19:56:57;;;;;;;8.07;3.97;;;;;;;-145.68;44.14;73016.13;10533016;28;20228;-73
2023/07/08 20:01:59;;;;;;;12.60;7.85;;;;;;;-145.68;44.21;73018.13;10534139;28;20202;-73
2023/07/08 20:07:00;;;;;;;7.70;4.90;;;;;;;-145.68;44.33;73042.09;10532982;28;20245;-73
2023/07/08 20:12:00;;;;;;;6.45;4.30;;;;;;;-145.68;44.73;73060.09;10533150;28;20187;-73
2023/07/08 20:17:01;;;;;;;8.05;4.63;;;;;;;-145.68;45.02;73088.06;10533068;28;20922;-74
2023/07/08 20:22:01;;;;;;;7.03;4.60;;;;;;;-145.68;44.96;73104.06;10533281;28;20667;-73
2023/07/08 20:27:31;;;;;;;6.20;4.32;;;;;;;-145.68;45.45;73126.03;10532640;28;20595;-73
2023/07/08 20:32:31;;;;;;;9.35;4.75;;;;;;;-145.68;45.78;73160.00;10320954;28;20233;-73
2023/07/08 20:37:32;;;;;;;6.82;3.85;;;;;;;-145.68;45.92;73180.00;10479552;28;20211;-73
2023/07/08 20:42:32;;;;;;;7.43;4.45;;;;;;;-145.68;46.29;73190.00;10476896;28;20693;-73
2023/07/08 20:47:33;;;;;;;6.90;4.07;;;;;;;-145.68;46.58;73219.97;10498178;28;20226;-74
2023/07/08 20:52:33;;;;;;;11.63;4.93;;;;;;;-145.68;46.69;73243.97;10497832;28;20187;-74
2023/07/08 20:57:33;;;;;;;5.55;4.40;;;;;;;-145.68;46.99;73251.94;10497372;28;20191;-74
2023/07/08 21:02:34;;;;;;;8.32;5.15;;;;;;;-145.68;47.09;73271.94;10497686;28;20240;-74
2023/07/08 21:07:34;;;;;;;5.32;4.10;;;;;;;-145.68;47.45;73293.94;10496933;28;20614;-73
2023/07/08 21:12:34;;;;;;;7.25;5.00;;;;;;;-145.68;47.73;73315.91;10497092;28;20195;-73
2023/07/08 21:17:37;;;;;;;9.80;4.70;;;;;;;-145.68;47.77;73325.91;10497220;28;20187;-74
2023/07/08 21:22:37;;;;;;;5.70;4.18;;;;;;;-145.68;47.91;73345.88;10497104;28;20191;-74
2023/07/08 21:27:38;;;;;;;5.60;4.18;;;;;;;-145.68;47.90;73353.88;10496725;28;20219;-74
2023/07/08 21:32:38;;;;;;;8.98;4.18;;;;;;;-145.68;48.24;73373.88;10511863;28;20226;-74
2023/07/08 21:37:46;;;;;;;7.57;4.22;;;;;;;-145.68;48.64;73389.88;10537886;28;20788;-73
2023/07/08 21:42:46;;;;;;;7.85;4.20;;;;;;;-145.68;48.58;73395.84;10520227;28;20194;-74
2023/07/08 21:47:46;;;;;;;5.15;4.00;;;;;;;-145.68;48.86;73413.84;10537755;28;20550;-74
2023/07/08 21:52:47;;;;;;;5.93;4.18;;;;;;;-145.68;48.59;73413.84;10536998;28;20190;-74
2023/07/08 21:57:47;;;;;;;5.22;3.50;;;;;;;-145.68;48.65;73421.84;10537088;28;20182;-74
2023/07/08 22:02:49;;;;;;;6.18;3.83;;;;;;;-145.68;48.85;73435.84;10537513;28;20198;-74
2023/07/08 22:07:49;;;;;;;8.18;4.50;;;;;;;-145.68;48.79;73443.84;10536628;28;20229;-74
2023/07/08 22:12:50;;;;;;;5.57;4.32;;;;;;;-145.68;48.78;73451.81;10536898;28;20195;-74
2023/07/08 22:17:51;;;;;;;7.05;4.95;;;;;;;-145.68;49.04;73467.81;10537000;28;20298;-75
2023/07/08 22:22:55;;;;;;;7.78;5.45;;;;;;;-145.68;49.10;73479.81;10536464;28;20190;-74
2023/07/08 22:27:56;;;;;;;7.43;5.05;;;;;;;-145.68;49.14;73481.81;10536519;28;20221;-74
2023/07/08 22:32:56;;;;;;;7.15;4.95;;;;;;;-145.68;49.24;73499.78;10535011;28;20568;-74
2023/07/08 22:37:57;;;;;;;12.07;5.10;;;;;;;-145.68;49.24;73501.78;10536093;28;20606;-74
2023/07/08 22:42:59;;;;;;;6.18;4.70;;;;;;;-145.68;49.32;73513.78;10535569;28;20194;-74
2023/07/08 22:47:59;;;;;;;6.25;4.05;;;;;;;-145.68;49.27;73515.78;10517751;28;20237;-74
2023/07/08 22:52:59;;;;;;;10.00;4.22;;;;;;;-145.68;49.30;73527.78;10535175;28;20190;-74
2023/07/08 22:58:01;;;;;;;6.30;4.10;;;;;;;-145.68;49.32;73535.78;10534977;28;20183;-74
2023/07/08 23:03:02;;;;;;;4.25;3.33;;;;;;;-145.68;49.27;73543.78;10517026;28;20198;-74